createdAt,value
2019-04-11T00:01:53.595Z,101488.53
2019-04-11T00:04:24.561Z,101495.13
2019-04-11T00:06:56.237Z,101490.73
2019-04-11T00:09:27.258Z,101494.64
2019-04-11T00:11:59.768Z,101493.30
2019-04-11T00:14:31.723Z,101500.18
2019-04-11T00:17:03.668Z,101497.06
2019-04-11T00:19:35.804Z,101501.80
2019-04-11T00:22:09.021Z,101506.94
2019-04-11T00:24:40.546Z,101506.88
2019-04-11T00:27:12.872Z,101509.14
2019-04-11T00:29:44.860Z,101509.99
2019-04-11T00:32:17.061Z,101511.39
2019-04-11T00:34:48.201Z,101509.66
2019-04-11T00:37:19.108Z,101508.94
2019-04-11T00:39:50.174Z,101511.52
2019-04-11T00:42:20.944Z,101501.51
2019-04-11T00:44:51.796Z,101502.06
2019-04-11T00:47:22.720Z,101511.20
2019-04-11T00:49:54.711Z,101509.91
2019-04-11T00:52:25.745Z,101513.90
2019-04-11T00:54:57.389Z,101509.97
2019-04-11T00:57:28.587Z,101519.58
2019-04-11T00:59:59.634Z,101516.09
2019-04-11T01:02:31.595Z,101515.72
2019-04-11T01:05:03.493Z,101517.89
2019-04-11T01:07:35.329Z,101518.73
2019-04-11T01:10:07.658Z,101521.34
2019-04-11T01:12:39.059Z,101519.62
2019-04-11T01:15:13.370Z,101525.75
2019-04-11T01:17:45.864Z,101521.85
2019-04-11T01:20:17.659Z,101523.09
2019-04-11T01:22:48.730Z,101522.19
2019-04-11T01:25:20.162Z,101525.27
2019-04-11T01:27:52.277Z,101528.80
2019-04-11T01:30:25.050Z,101520.92
2019-04-11T01:32:56.950Z,101525.70
2019-04-11T01:35:28.796Z,101523.52
2019-04-11T01:37:59.887Z,101521.23
2019-04-11T01:40:31.954Z,101515.08
2019-04-11T01:43:03.850Z,101519.92
2019-04-11T01:45:35.773Z,101522.94
2019-04-11T01:48:13.737Z,101520.81
2019-04-11T01:50:45.273Z,101526.48
2019-04-11T01:53:17.105Z,101526.47
2019-04-11T01:55:48.367Z,101532.63
2019-04-11T01:58:19.448Z,101534.41
2019-04-11T02:00:54.898Z,101526.95
2019-04-11T02:03:27.854Z,101539.15
2019-04-11T02:05:59.173Z,101540.86
2019-04-11T02:08:31.437Z,101546.11
2019-04-11T02:11:03.354Z,101549.63
2019-04-11T02:13:34.495Z,101558.30
2019-04-11T02:16:05.339Z,101553.07
2019-04-11T02:18:37.295Z,101549.04
2019-04-11T02:21:11.542Z,101547.22
2019-04-11T02:24:01.625Z,101547.17
2019-04-11T02:26:35.545Z,101553.31
2019-04-11T02:29:06.606Z,101556.46
2019-04-11T02:31:38.927Z,101552.58
2019-04-11T02:34:11.383Z,101545.08
2019-04-11T02:36:43.399Z,101553.83
2019-04-11T02:39:19.514Z,101558.63
2019-04-11T02:41:48.225Z,101550.30
2019-04-11T02:44:50.953Z,101555.17
2019-04-11T02:47:00.685Z,101554.61
2019-04-11T02:49:25.722Z,101549.46
2019-04-11T02:51:58.577Z,101556.41
2019-04-11T02:54:30.567Z,101549.82
2019-04-11T02:57:02.543Z,101552.03
2019-04-11T02:59:34.518Z,101552.97
2019-04-11T03:02:07.037Z,101558.19
2019-04-11T03:04:39.303Z,101550.27
2019-04-11T03:07:12.282Z,101554.17
2019-04-11T03:09:44.456Z,101551.58
2019-04-11T03:12:16.439Z,101554.25
2019-04-11T03:15:05.572Z,101548.09
2019-04-11T03:17:26.169Z,101555.89
2019-04-11T03:20:04.304Z,101555.42
2019-04-11T03:22:26.945Z,101553.28
2019-04-11T03:25:00.129Z,101556.37
2019-04-11T03:27:32.401Z,101555.94
2019-04-11T03:30:09.950Z,101555.05
2019-04-11T03:38:04.197Z,101561.59
2019-04-11T03:40:36.174Z,101557.57
2019-04-11T03:43:05.815Z,101566.86
2019-04-11T03:45:43.848Z,101563.80
2019-04-11T03:48:12.385Z,101561.17
2019-04-11T03:50:33.932Z,101567.78
2019-04-11T03:53:04.750Z,101570.47
2019-04-11T03:55:36.904Z,101575.66
2019-04-11T03:58:08.982Z,101567.39
2019-04-11T04:00:43.655Z,101570.84
2019-04-11T04:03:14.217Z,101566.88
2019-04-11T04:05:45.535Z,101578.70
2019-04-11T04:08:17.813Z,101578.72
2019-04-11T04:11:08.549Z,101575.61
2019-04-11T04:13:45.969Z,101580.48
2019-04-11T04:16:27.369Z,101577.45
2019-04-11T04:19:11.737Z,101580.48
2019-04-11T04:21:49.276Z,101587.94
2019-04-11T04:24:28.792Z,101597.58
2019-04-11T04:27:01.719Z,101595.41
2019-04-11T04:29:35.184Z,101595.86
2019-04-11T04:32:08.711Z,101599.83
2019-04-11T04:34:42.194Z,101605.59
2019-04-11T04:37:14.129Z,101610.49
2019-04-11T04:39:45.773Z,101610.48
2019-04-11T04:42:25.022Z,101611.83
2019-04-11T04:44:51.755Z,101615.38
2019-04-11T04:47:32.752Z,101605.37
2019-04-11T04:49:57.088Z,101616.77
2019-04-11T04:52:29.680Z,101615.05
2019-04-11T04:55:02.104Z,101614.64
2019-04-11T04:57:35.377Z,101616.44
2019-04-11T05:00:07.364Z,101619.96
2019-04-11T05:02:39.807Z,101619.52
2019-04-11T05:05:11.342Z,101621.72
2019-04-11T05:07:46.374Z,101622.63
2019-04-11T05:10:16.689Z,101627.88
2019-04-11T05:12:47.368Z,101623.11
2019-04-11T05:15:18.728Z,101626.20
2019-04-11T05:17:51.103Z,101622.73
2019-04-11T05:20:22.418Z,101625.80
2019-04-11T05:22:53.714Z,101627.14
2019-04-11T05:25:24.730Z,101624.56
2019-04-11T05:27:55.952Z,101620.63
2019-04-11T05:30:27.211Z,101616.28
2019-04-11T05:32:58.181Z,101616.30
2019-04-11T05:35:29.887Z,101614.13
2019-04-11T05:38:01.985Z,101632.55
2019-04-11T05:40:32.774Z,101622.50
2019-04-11T05:43:03.937Z,101626.03
2019-04-11T05:45:35.981Z,101633.91
2019-04-11T05:48:09.403Z,101634.38
2019-04-11T05:50:46.317Z,101636.56
2019-04-11T05:53:15.801Z,101633.94
2019-04-11T05:55:48.237Z,101642.30
2019-04-11T05:58:19.660Z,101644.47
2019-04-11T06:00:59.640Z,101645.80
2019-04-11T06:03:30.694Z,101650.18
2019-04-11T06:06:16.523Z,101647.97
2019-04-11T06:08:48.396Z,101645.77
2019-04-11T06:11:23.729Z,101652.35
2019-04-11T06:14:11.234Z,101659.35
2019-04-11T06:16:49.477Z,101652.30
2019-04-11T06:19:37.549Z,101650.53
2019-04-11T06:22:10.826Z,101658.44
2019-04-11T06:24:52.766Z,101677.79
2019-04-11T06:27:25.428Z,101662.39
2019-04-11T06:29:59.177Z,101672.42
2019-04-11T06:32:35.894Z,101672.83
2019-04-11T06:35:13.586Z,101673.28
2019-04-11T06:37:46.426Z,101664.05
2019-04-11T06:40:26.435Z,101664.00
2019-04-11T06:43:16.791Z,101657.74
2019-04-11T06:46:05.008Z,101661.55
2019-04-11T06:48:53.954Z,101661.23
2019-04-11T06:51:42.785Z,101661.52
2019-04-11T06:54:19.029Z,101672.17
2019-04-11T06:56:52.298Z,101665.09
2019-04-11T06:59:30.826Z,101666.83
2019-04-11T07:02:11.541Z,101660.12
2019-04-11T07:04:39.979Z,101660.83
2019-04-11T07:07:12.995Z,101660.66
2019-04-11T07:09:46.912Z,101647.27
2019-04-11T07:12:22.155Z,101657.95
2019-04-11T07:14:58.343Z,101664.60
2019-04-11T07:17:48.367Z,101689.16
2019-04-11T07:20:31.418Z,101670.92
2019-04-11T07:23:20.296Z,101672.38
2019-04-11T07:25:53.920Z,101671.41
2019-04-11T07:28:41.803Z,101673.93
2019-04-11T07:31:21.626Z,101682.77
2019-04-11T07:34:12.511Z,101673.64
2019-04-11T07:36:46.259Z,101685.16
2019-04-11T07:39:22.659Z,101687.54
2019-04-11T07:41:56.100Z,101684.05
2019-04-11T07:44:35.933Z,101687.41
2019-04-11T07:47:18.140Z,101680.52
2019-04-11T07:49:43.633Z,101689.70
2019-04-11T07:52:18.070Z,101685.73
2019-04-11T07:54:48.765Z,101684.09
2019-04-11T07:57:38.537Z,101686.24
2019-04-11T08:00:12.784Z,101697.04
2019-04-11T08:03:01.938Z,101692.77
2019-04-11T08:05:46.606Z,101699.87
2019-04-11T08:08:23.228Z,101690.73
2019-04-11T08:10:56.242Z,101693.02
2019-04-11T08:13:30.364Z,101693.84
2019-04-11T08:16:12.579Z,101696.23
2019-04-11T08:18:46.695Z,101698.88
2019-04-11T08:21:26.197Z,101695.66
2019-04-11T08:23:58.752Z,101697.75
2019-04-11T08:26:36.614Z,101699.17
2019-04-11T08:29:13.376Z,101702.96
2019-04-11T08:31:58.743Z,101701.93
2019-04-11T08:34:32.325Z,101706.66
2019-04-11T08:37:11.532Z,101692.69
2019-04-11T08:39:43.094Z,101699.11
2019-04-11T08:42:23.386Z,101692.73
2019-04-11T08:44:54.570Z,101710.27
2019-04-11T08:47:40.193Z,101691.00
2019-04-11T08:50:00.092Z,101692.89
2019-04-11T08:52:32.860Z,101685.39
2019-04-11T08:55:08.212Z,101686.59
2019-04-11T08:57:41.538Z,101697.97
2019-04-11T09:00:24.239Z,101692.45
2019-04-11T09:03:05.095Z,101706.26
2019-04-11T09:05:38.882Z,101709.54
2019-04-11T09:08:18.363Z,101686.29
2019-04-11T09:10:58.154Z,101688.07
2019-04-11T09:13:47.321Z,101684.02
2019-04-11T09:16:37.450Z,101679.99
2019-04-11T09:19:13.269Z,101689.66
2019-04-11T09:22:02.741Z,101692.47
2019-04-11T09:24:38.814Z,101706.38
2019-04-11T09:27:24.871Z,101692.43
2019-04-11T09:30:04.461Z,101697.61
2019-04-11T09:32:38.218Z,101694.30
2019-04-11T09:35:12.301Z,101692.64
2019-04-11T09:37:46.259Z,101691.45
2019-04-11T09:40:37.136Z,101702.23
2019-04-11T09:43:28.202Z,101686.31
2019-04-11T09:46:16.523Z,101698.41
2019-04-11T09:48:58.116Z,101696.25
2019-04-11T09:51:40.375Z,101690.67
2019-04-11T09:54:15.547Z,101689.55
2019-04-11T09:56:54.019Z,101683.52
2019-04-11T09:59:29.886Z,101697.06
2019-04-11T10:02:18.833Z,101693.78
2019-04-11T10:04:52.323Z,101703.73
2019-04-11T10:07:28.135Z,101710.66
2019-04-11T10:10:00.792Z,101698.70
2019-04-11T10:12:49.207Z,101694.03
2019-04-11T10:15:23.156Z,101709.92
2019-04-11T10:18:23.006Z,101717.34
2019-04-11T10:20:44.679Z,101703.61
2019-04-11T10:23:36.631Z,101710.12
2019-04-11T10:26:08.017Z,101710.95
2019-04-11T10:29:00.234Z,101717.52
2019-04-11T10:31:33.089Z,101718.16
2019-04-11T10:34:14.585Z,101718.28
2019-04-11T10:36:47.420Z,101715.31
2019-04-11T10:39:19.983Z,101713.51
2019-04-11T10:41:53.742Z,101717.16
2019-04-11T10:44:43.380Z,101708.02
2019-04-11T10:47:22.906Z,101709.88
2019-04-11T10:50:15.470Z,101712.52
2019-04-11T10:52:48.885Z,101713.40
2019-04-11T10:55:25.319Z,101709.86
2019-04-11T10:58:05.091Z,101712.73
2019-04-11T11:00:43.312Z,101710.96
2019-04-11T11:03:29.052Z,101711.20
2019-04-11T11:06:03.158Z,101706.91
2019-04-11T11:08:37.587Z,101721.42
2019-04-11T11:11:30.374Z,101711.86
2019-04-11T11:14:22.771Z,101703.64
2019-04-11T11:17:04.541Z,101702.41
2019-04-11T11:19:55.174Z,101703.41
2019-04-11T11:22:18.994Z,101709.60
2019-04-11T11:25:11.601Z,101707.14
2019-04-11T11:27:41.675Z,101715.11
2019-04-11T11:30:31.530Z,101716.82
2019-04-11T11:33:05.611Z,101712.13
2019-04-11T11:35:50.012Z,101708.02
2019-04-11T11:38:26.057Z,101708.77
2019-04-11T11:40:58.806Z,101718.17
2019-04-11T11:43:32.972Z,101711.71
2019-04-11T11:46:07.413Z,101722.58
2019-04-11T11:48:41.797Z,101728.14
2019-04-11T11:51:15.087Z,101734.27
2019-04-11T11:53:51.279Z,101732.96
2019-04-11T11:56:22.279Z,101736.53
2019-04-11T11:59:02.755Z,101729.36
2019-04-11T12:01:33.916Z,101719.88
2019-04-11T12:04:24.542Z,101734.53
2019-04-11T12:07:03.592Z,101728.56
2019-04-11T12:09:50.954Z,101731.20
2019-04-11T12:12:23.949Z,101732.74
2019-04-11T12:15:16.943Z,101727.69
2019-04-11T12:17:57.647Z,101731.89
2019-04-11T12:20:34.786Z,101734.89
2019-04-11T12:23:19.685Z,101727.05
2019-04-11T12:25:51.705Z,101728.72
2019-04-11T12:28:41.549Z,101723.69
2019-04-11T12:31:13.498Z,101736.57
2019-04-11T12:34:03.132Z,101736.13
2019-04-11T12:36:36.921Z,101734.91
2019-04-11T12:39:19.832Z,101731.74
2019-04-11T12:41:52.330Z,101730.45
2019-04-11T12:44:31.154Z,101721.67
2019-04-11T12:47:15.704Z,101723.00
2019-04-11T12:49:53.151Z,101724.89
2019-04-11T12:52:25.708Z,101724.55
2019-04-11T12:55:04.426Z,101719.45
2019-04-11T12:57:43.106Z,101719.52
2019-04-11T13:00:18.478Z,101715.73
2019-04-11T13:02:54.166Z,101731.61
2019-04-11T13:05:26.382Z,101716.84
2019-04-11T13:08:16.046Z,101713.23
2019-04-11T13:10:48.148Z,101707.20
2019-04-11T13:13:20.947Z,101713.30
2019-04-11T13:15:54.652Z,101720.21
2019-04-11T13:18:45.032Z,101715.23
2019-04-11T13:21:20.868Z,101717.30
2019-04-11T13:23:57.511Z,101720.94
2019-04-11T13:26:46.377Z,101721.09
2019-04-11T13:29:30.625Z,101725.41
2019-04-11T13:32:19.579Z,101716.11
2019-04-11T13:34:53.504Z,101722.17
2019-04-11T13:37:42.504Z,101722.32
2019-04-11T13:40:31.548Z,101714.03
2019-04-11T13:43:20.682Z,101729.77
2019-04-11T13:46:04.439Z,101712.61
2019-04-11T13:48:48.857Z,101721.58
2019-04-11T13:51:31.549Z,101717.66
2019-04-11T13:54:31.059Z,101713.67
2019-04-11T13:57:06.633Z,101719.67
2019-04-11T13:59:42.749Z,101720.30
2019-04-11T14:02:18.491Z,101718.35
2019-04-11T14:05:03.668Z,101715.38
2019-04-11T14:07:35.046Z,101717.72
2019-04-11T14:10:09.408Z,101722.36
2019-04-11T14:12:41.040Z,101716.73
2019-04-11T14:15:14.930Z,101722.52
2019-04-11T14:17:50.323Z,101716.87
2019-04-11T14:20:29.648Z,101725.86
2019-04-11T14:23:03.528Z,101717.67
2019-04-11T14:25:52.836Z,101718.73
2019-04-11T14:28:29.639Z,101712.69
2019-04-11T14:31:21.827Z,101714.36
2019-04-11T14:33:55.635Z,101714.95
2019-04-11T14:36:45.954Z,101710.60
2019-04-11T14:39:20.204Z,101703.94
2019-04-11T14:41:59.879Z,101714.56
2019-04-11T14:44:35.150Z,101709.83
2019-04-11T14:47:29.399Z,101704.89
2019-04-11T14:50:02.035Z,101707.28
2019-04-11T14:52:37.330Z,101715.68
2019-04-11T14:55:08.839Z,101703.00
2019-04-11T14:57:55.936Z,101709.77
2019-04-11T15:00:31.791Z,101699.02
2019-04-11T15:03:17.944Z,101710.48
2019-04-11T15:05:51.817Z,101704.83
2019-04-11T15:08:31.111Z,101708.92
2019-04-11T15:11:12.875Z,101710.20
2019-04-11T15:13:45.851Z,101708.25
2019-04-11T15:16:19.654Z,101703.58
2019-04-11T15:18:52.347Z,101702.91
2019-04-11T15:21:43.479Z,101713.52
2019-04-11T15:24:16.182Z,101709.64
2019-04-11T15:26:53.394Z,101705.83
2019-04-11T15:29:27.589Z,101708.13
2019-04-11T15:32:03.552Z,101708.11
2019-04-11T15:34:37.218Z,101708.02
2019-04-11T15:37:19.994Z,101714.71
2019-04-11T15:40:02.415Z,101717.07
2019-04-11T15:42:51.423Z,101721.05
2019-04-11T15:45:24.121Z,101715.39
2019-04-11T15:48:13.099Z,101718.48
2019-04-11T15:51:06.751Z,101719.38
2019-04-11T15:53:39.611Z,101719.34
2019-04-11T15:56:29.699Z,101742.58
2019-04-11T15:59:12.921Z,101720.55
2019-04-11T16:02:02.760Z,101720.97
2019-04-11T16:04:36.799Z,101720.45
2019-04-11T16:07:15.141Z,101724.97
2019-04-11T16:09:57.146Z,101728.08
2019-04-11T16:12:32.399Z,101727.75
2019-04-11T16:15:13.917Z,101719.42
2019-04-11T16:17:53.590Z,101717.98
2019-04-11T16:20:25.219Z,101728.16
2019-04-11T16:23:01.157Z,101727.86
2019-04-11T16:25:32.529Z,101725.72
2019-04-11T16:28:21.054Z,101726.55
2019-04-11T16:30:53.874Z,101723.15
2019-04-11T16:33:31.093Z,101720.91
2019-04-11T16:36:08.544Z,101726.69
2019-04-11T16:38:49.836Z,101731.12
2019-04-11T16:41:38.768Z,101735.55
2019-04-11T16:44:25.582Z,101739.51
2019-04-11T16:47:04.860Z,101741.31
2019-04-11T16:49:37.474Z,101741.36
2019-04-11T16:52:08.861Z,101736.15
2019-04-11T16:54:40.549Z,101744.08
2019-04-11T16:57:13.569Z,101738.78
2019-04-11T16:59:44.063Z,101737.98
2019-04-11T17:02:16.131Z,101749.05
2019-04-11T17:04:47.758Z,101741.19
2019-04-11T17:07:29.036Z,101745.16
2019-04-11T17:10:02.700Z,101745.20
2019-04-11T17:12:34.101Z,101749.18
2019-04-11T17:15:06.928Z,101750.50
2019-04-11T17:17:38.296Z,101750.16
2019-04-11T17:20:11.601Z,101757.64
2019-04-11T17:22:42.799Z,101753.73
2019-04-11T17:25:14.448Z,101761.69
2019-04-11T17:27:47.086Z,101755.06
2019-04-11T17:30:20.124Z,101759.48
2019-04-11T17:32:55.381Z,101766.10
2019-04-11T17:35:24.003Z,101771.90
2019-04-11T17:37:55.295Z,101776.79
2019-04-11T17:40:27.548Z,101779.91
2019-04-11T17:43:00.048Z,101776.79
2019-04-11T17:45:31.978Z,101792.72
2019-04-11T17:48:03.351Z,101788.70
2019-04-11T17:50:35.657Z,101786.52
2019-04-11T17:53:07.395Z,101796.70
2019-04-11T17:55:39.955Z,101800.25
2019-04-11T17:58:11.185Z,101806.87
2019-04-11T18:00:47.004Z,101801.16
2019-04-11T18:03:18.840Z,101805.13
2019-04-11T18:05:50.100Z,101805.14
2019-04-11T18:08:21.374Z,101813.94
2019-04-11T18:10:55.792Z,101814.35
2019-04-11T18:13:25.289Z,101827.21
2019-04-11T18:16:00.937Z,101826.75
2019-04-11T18:18:30.344Z,101824.12
2019-04-11T18:21:12.218Z,101826.76
2019-04-11T18:23:52.205Z,101834.29
2019-04-11T18:26:26.100Z,101840.48
2019-04-11T18:28:57.227Z,101837.38
2019-04-11T18:31:28.973Z,101842.67
2019-04-11T18:34:02.450Z,101831.23
2019-04-11T18:36:37.237Z,101839.16
2019-04-11T18:39:08.568Z,101836.52
2019-04-11T18:41:41.111Z,101838.75
2019-04-11T18:44:18.057Z,101845.36
2019-04-11T18:46:48.025Z,101845.82
2019-04-11T18:49:21.769Z,101845.86
2019-04-11T18:51:53.729Z,101848.05
2019-04-11T18:54:27.316Z,101848.50
2019-04-11T18:56:59.636Z,101851.59
2019-04-11T18:59:33.709Z,101857.80
2019-04-11T19:02:04.443Z,101847.64
2019-04-11T19:04:36.720Z,101843.25
2019-04-11T19:07:12.980Z,101856.89
2019-04-11T19:09:43.968Z,101848.95
2019-04-11T19:12:16.433Z,101848.09
2019-04-11T19:14:47.457Z,101849.91
2019-04-11T19:17:19.818Z,101848.13
2019-04-11T19:19:51.808Z,101849.45
2019-04-11T19:22:36.814Z,101850.77
2019-04-11T19:24:55.357Z,101859.16
2019-04-11T19:27:27.143Z,101857.37
2019-04-11T19:29:59.700Z,101851.67
2019-04-11T19:32:31.062Z,101861.38
2019-04-11T19:35:02.042Z,101862.25
2019-04-11T19:37:37.453Z,101859.61
2019-04-11T19:40:10.069Z,101860.48
2019-04-11T19:42:41.646Z,101859.61
2019-04-11T19:45:13.274Z,101868.45
2019-04-11T19:47:45.972Z,101864.93
2019-04-11T19:50:16.991Z,101863.64
2019-04-11T19:52:49.162Z,101862.74
2019-04-11T19:55:22.119Z,101862.29
2019-04-11T19:57:54.338Z,101861.45
2019-04-11T20:00:25.210Z,101864.06
2019-04-11T20:02:56.977Z,101858.36
2019-04-11T20:05:27.832Z,101857.91
2019-04-11T20:08:00.634Z,101869.38
2019-04-11T20:10:33.033Z,101863.23
2019-04-11T20:13:05.646Z,101872.90
2019-04-11T20:15:37.511Z,101867.64
2019-04-11T20:18:10.373Z,101866.35
2019-04-11T20:20:41.760Z,101865.48
2019-04-11T20:23:13.713Z,101854.88
2019-04-11T20:25:49.086Z,101871.19
2019-04-11T20:28:19.900Z,101875.16
2019-04-11T20:30:51.922Z,101874.25
2019-04-11T20:33:27.220Z,101866.77
2019-04-11T20:35:57.286Z,101864.58
2019-04-11T20:38:28.678Z,101867.22
2019-04-11T20:40:59.920Z,101866.32
2019-04-11T20:43:35.395Z,101872.06
2019-04-11T20:46:08.244Z,101873.83
2019-04-11T20:48:39.572Z,101872.95
2019-04-11T20:51:12.664Z,101868.55
2019-04-11T20:53:43.694Z,101875.63
2019-04-11T20:56:23.944Z,101872.54
2019-04-11T20:58:51.609Z,101864.61
2019-04-11T21:01:23.812Z,101872.56
2019-04-11T21:04:00.062Z,101862.45
2019-04-11T21:06:32.082Z,101869.50
2019-04-11T21:09:03.626Z,101871.28
2019-04-11T21:11:37.150Z,101871.28
2019-04-11T21:14:08.097Z,101865.98
2019-04-11T21:16:38.962Z,101869.95
2019-04-11T21:19:09.953Z,101869.53
2019-04-11T21:21:40.723Z,101870.88
2019-04-11T21:24:11.948Z,101868.69
2019-04-11T21:26:42.590Z,101870.88
2019-04-11T21:29:13.790Z,101868.23
2019-04-11T21:31:44.825Z,101870.91
2019-04-11T21:34:16.846Z,101868.26
2019-04-11T21:36:47.467Z,101867.81
2019-04-11T21:39:18.261Z,101867.81
2019-04-11T21:41:49.284Z,101876.19
2019-04-11T21:44:20.169Z,101870.48
2019-04-11T21:46:51.072Z,101873.54
2019-04-11T21:49:22.136Z,101871.38
2019-04-11T21:51:53.360Z,101870.02
2019-04-11T21:54:24.233Z,101871.80
2019-04-11T21:56:55.229Z,101870.92
2019-04-11T21:59:27.025Z,101880.62
2019-04-11T22:01:58.179Z,101880.62
2019-04-11T22:04:31.110Z,101875.78
2019-04-11T22:07:02.557Z,101875.78
2019-04-11T22:09:35.506Z,101879.32
2019-04-11T22:12:08.233Z,101874.46
2019-04-11T22:14:41.849Z,101875.78
2019-04-11T22:17:15.902Z,101883.71
2019-04-11T22:19:46.553Z,101874.04
2019-04-11T22:22:18.984Z,101880.62
2019-04-11T22:24:52.939Z,101882.84
2019-04-11T22:27:24.480Z,101876.66
2019-04-11T22:29:55.841Z,101880.19
2019-04-11T22:32:27.020Z,101871.82
2019-04-11T22:34:59.217Z,101884.60
2019-04-11T22:37:30.810Z,101890.78
2019-04-11T22:40:02.749Z,101888.56
2019-04-11T22:42:34.910Z,101886.36
2019-04-11T22:45:08.485Z,101882.41
2019-04-11T22:47:38.991Z,101887.27
2019-04-11T22:50:11.014Z,101892.09
2019-04-11T22:52:42.197Z,101894.31
2019-04-11T22:55:13.771Z,101889.48
2019-04-11T22:57:44.552Z,101889.89
2019-04-11T23:00:16.354Z,101892.11
2019-04-11T23:02:51.998Z,101896.52
2019-04-11T23:05:23.115Z,101894.30
2019-04-11T23:07:55.583Z,101892.56
2019-04-11T23:10:26.601Z,101893.86
2019-04-11T23:12:57.345Z,101886.83
2019-04-11T23:15:31.264Z,101886.83
2019-04-11T23:18:02.733Z,101882.44
2019-04-11T23:20:33.753Z,101885.53
2019-04-11T23:23:05.075Z,101893.01
2019-04-11T23:25:36.808Z,101891.68
2019-04-11T23:28:07.661Z,101892.56
2019-04-11T23:30:39.751Z,101887.72
2019-04-11T23:33:10.619Z,101888.59
2019-04-11T23:35:41.146Z,101886.83
2019-04-11T23:38:12.667Z,101887.72
2019-04-11T23:40:43.569Z,101885.97
2019-04-11T23:43:15.381Z,101889.06
2019-04-11T23:45:46.327Z,101890.80
2019-04-11T23:48:17.375Z,101884.66
2019-04-11T23:50:48.401Z,101881.12
2019-04-11T23:53:19.715Z,101884.66
2019-04-11T23:55:50.504Z,101884.20
2019-04-11T23:58:21.795Z,101888.63
